Terminal Aerodrome Forecast
Issued by NWS

Home | Current Version | Previous Version | Text Only | Print | Product List | Glossary On
Versions: 1 2 3 4 5 6 7 8 9 10 11 12 13 14
788
FTUS45 KREV 172320
TAFMMH
TAF
KMMH 172320Z 1800/1824 VRB03KT P6SM SCT150
     FM180700 VRB04KT P6SM SCT090 BKN150
     FM181200 20008KT P6SM SCT090 BKN100 WS020/23035KT
     FM182100 19012G23KT P6SM VCSH BKN080 OVC150=

USA.gov is the U.S. government's official web portal to all federal, state and local government web resources and services.